createdAt,value
2022-08-08T00:00:54.306Z,16.54
2022-08-08T00:03:32.216Z,16.48
2022-08-08T00:06:47.804Z,16.41
2022-08-08T00:10:05.160Z,16.29
2022-08-08T00:13:20.621Z,16.25
2022-08-08T00:16:28.951Z,16.19
2022-08-08T00:19:46.702Z,16.20
2022-08-08T00:23:00.584Z,16.17
2022-08-08T00:26:08.695Z,16.13
2022-08-08T00:29:45.837Z,16.09
2022-08-08T00:32:49.485Z,16.09
2022-08-08T00:36:02.414Z,16.11
2022-08-08T00:41:06.310Z,16.07
2022-08-08T00:43:23.663Z,15.97
2022-08-08T00:46:57.015Z,15.90
2022-08-08T00:50:26.792Z,15.89
2022-08-08T00:54:15.290Z,15.83
2022-08-08T00:58:14.724Z,15.78
2022-08-08T01:01:29.303Z,15.74
2022-08-08T01:05:59.794Z,15.73
2022-08-08T01:09:50.662Z,15.69
2022-08-08T01:13:43.934Z,15.60
2022-08-08T01:17:35.097Z,15.59
2022-08-08T01:21:36.943Z,15.52
2022-08-08T01:25:40.731Z,15.46
2022-08-08T01:29:35.559Z,15.43
2022-08-08T01:34:00.091Z,15.39
2022-08-08T01:38:05.799Z,15.36
2022-08-08T01:41:34.415Z,15.31
2022-08-08T01:44:58.896Z,15.27
2022-08-08T01:48:16.206Z,15.26
2022-08-08T01:52:28.086Z,15.18
2022-08-08T01:56:29.739Z,15.13
2022-08-08T01:59:14.833Z,15.06
2022-08-08T02:02:39.998Z,15.01
2022-08-08T02:05:59.612Z,15.00
2022-08-08T02:10:01.892Z,14.93
2022-08-08T02:12:54.994Z,14.93
2022-08-08T02:16:20.545Z,14.90
2022-08-08T02:19:57.978Z,14.89
2022-08-08T02:23:07.670Z,14.83
2022-08-08T02:26:17.498Z,14.76
2022-08-08T02:29:54.789Z,14.74
2022-08-08T02:33:15.419Z,14.75
2022-08-08T02:36:40.732Z,14.69
2022-08-08T02:40:10.296Z,14.65
2022-08-08T02:44:42.553Z,14.62
2022-08-08T02:48:26.268Z,14.55
2022-08-08T02:52:03.150Z,14.53
2022-08-08T02:56:08.549Z,14.50
2022-08-08T03:00:27.073Z,14.45
2022-08-08T03:05:05.091Z,14.46
2022-08-08T03:08:33.540Z,14.53
2022-08-08T03:12:36.763Z,14.44
2022-08-08T03:16:34.622Z,14.38
2022-08-08T03:20:05.650Z,14.36
2022-08-08T03:23:17.554Z,14.34
2022-08-08T03:26:31.120Z,14.34
2022-08-08T03:29:55.348Z,14.35
2022-08-08T03:33:55.284Z,14.34
2022-08-08T03:36:45.029Z,14.36
2022-08-08T03:40:00.641Z,14.36
2022-08-08T03:43:18.074Z,14.34
2022-08-08T03:46:25.915Z,14.33
2022-08-08T03:49:57.220Z,14.34
2022-08-08T03:53:04.394Z,14.33
2022-08-08T03:56:09.516Z,14.36
2022-08-08T03:59:22.527Z,14.31
2022-08-08T04:02:36.553Z,14.31
2022-08-08T04:05:51.427Z,14.27
2022-08-08T04:09:06.814Z,14.26
2022-08-08T04:12:16.760Z,14.30
2022-08-08T04:15:24.431Z,14.31
2022-08-08T04:18:44.626Z,14.36
2022-08-08T04:21:48.093Z,14.32
2022-08-08T04:24:54.409Z,14.30
2022-08-08T04:28:37.018Z,14.28
2022-08-08T04:31:30.719Z,14.30
2022-08-08T04:34:55.841Z,14.26
2022-08-08T04:38:06.275Z,14.28
2022-08-08T04:41:18.036Z,14.27
2022-08-08T04:44:26.924Z,14.37
2022-08-08T04:47:30.834Z,14.43
2022-08-08T04:50:38.172Z,14.48
2022-08-08T04:54:27.173Z,14.55
2022-08-08T04:57:07.451Z,14.57
2022-08-08T05:00:19.674Z,14.66
2022-08-08T05:04:09.957Z,14.77
2022-08-08T05:06:52.176Z,14.89
2022-08-08T05:09:57.361Z,14.97
2022-08-08T05:13:02.612Z,15.10
2022-08-08T05:16:51.673Z,15.27
2022-08-08T05:20:12.537Z,15.36
2022-08-08T05:23:11.075Z,15.54
2022-08-08T05:26:14.458Z,15.63
2022-08-08T05:29:17.641Z,15.84
2022-08-08T05:32:24.610Z,15.96
2022-08-08T05:35:34.119Z,16.09
2022-08-08T05:38:48.704Z,16.22
2022-08-08T05:41:57.383Z,16.27
2022-08-08T05:45:10.335Z,16.32
2022-08-08T05:48:31.342Z,16.56
2022-08-08T05:51:48.457Z,16.65
2022-08-08T05:55:00.349Z,16.87
2022-08-08T05:58:17.876Z,16.92
2022-08-08T06:01:55.424Z,16.97
2022-08-08T06:04:56.299Z,16.98
2022-08-08T06:08:09.957Z,17.11
2022-08-08T06:11:32.801Z,17.32
2022-08-08T06:14:48.818Z,17.36
2022-08-08T06:18:20.249Z,17.50
2022-08-08T06:21:32.574Z,17.64
2022-08-08T06:24:47.377Z,17.83
2022-08-08T06:27:56.987Z,18.02
2022-08-08T06:31:04.218Z,18.09
2022-08-08T06:34:26.191Z,18.15
2022-08-08T06:37:37.351Z,18.33
2022-08-08T06:40:53.863Z,18.43
2022-08-08T06:44:03.332Z,18.64
2022-08-08T06:47:11.665Z,18.86
2022-08-08T06:50:17.614Z,19.00
2022-08-08T06:53:39.163Z,19.16
2022-08-08T06:56:47.103Z,19.22
2022-08-08T07:00:12.644Z,19.43
2022-08-08T07:04:36.995Z,19.60
2022-08-08T07:06:58.239Z,19.60
2022-08-08T07:10:08.876Z,19.83
2022-08-08T07:13:25.128Z,19.96
2022-08-08T07:16:50.815Z,20.24
2022-08-08T07:20:05.169Z,20.40
2022-08-08T07:23:22.464Z,20.52
2022-08-08T07:26:35.697Z,20.69
2022-08-08T07:29:59.934Z,20.86
2022-08-08T07:33:05.982Z,21.08
2022-08-08T07:36:15.211Z,21.29
2022-08-08T07:39:29.461Z,21.54
2022-08-08T07:42:38.382Z,21.75
2022-08-08T07:46:05.442Z,21.98
2022-08-08T07:49:13.419Z,22.26
2022-08-08T07:52:23.040Z,22.43
2022-08-08T07:55:36.444Z,22.56
2022-08-08T07:58:45.174Z,22.83
2022-08-08T08:02:35.728Z,23.11
2022-08-08T08:05:33.138Z,23.35
2022-08-08T08:08:41.855Z,23.43
2022-08-08T08:11:55.300Z,23.50
2022-08-08T08:15:08.513Z,23.64
2022-08-08T08:18:18.095Z,23.79
2022-08-08T08:21:52.668Z,24.14
2022-08-08T08:25:10.238Z,24.40
2022-08-08T08:28:21.264Z,24.52
2022-08-08T08:31:29.811Z,24.56
2022-08-08T08:34:49.296Z,24.71
2022-08-08T08:38:15.792Z,25.04
2022-08-08T08:41:20.192Z,24.99
2022-08-08T08:44:29.011Z,25.12
2022-08-08T08:47:44.879Z,25.27
2022-08-08T08:50:52.350Z,25.56
2022-08-08T08:53:59.764Z,25.34
2022-08-08T08:57:15.731Z,25.68
2022-08-08T09:00:22.645Z,25.85
2022-08-08T09:03:46.504Z,26.02
2022-08-08T09:06:53.941Z,25.88
2022-08-08T09:10:01.011Z,26.18
2022-08-08T09:13:18.621Z,26.43
2022-08-08T09:16:33.207Z,26.54
2022-08-08T09:21:57.187Z,26.58
2022-08-08T09:23:03.699Z,26.68
2022-08-08T09:26:16.061Z,27.00
2022-08-08T09:29:24.624Z,27.21
2022-08-08T09:32:50.267Z,27.36
2022-08-08T09:36:07.021Z,27.50
2022-08-08T09:39:19.144Z,27.63
2022-08-08T09:42:31.818Z,27.96
2022-08-08T09:46:01.151Z,27.92
2022-08-08T09:49:41.565Z,28.03
2022-08-08T09:52:56.595Z,28.19
2022-08-08T09:56:05.936Z,28.14
2022-08-08T09:59:42.825Z,27.99
2022-08-08T10:02:40.409Z,28.17
2022-08-08T10:05:46.844Z,28.24
2022-08-08T10:08:53.428Z,28.46
2022-08-08T10:12:27.035Z,28.27
2022-08-08T10:15:20.741Z,28.25
2022-08-08T10:18:28.243Z,28.43
2022-08-08T10:21:42.340Z,28.73
2022-08-08T10:25:01.374Z,28.75
2022-08-08T10:28:08.168Z,28.95
2022-08-08T10:31:46.897Z,29.23
2022-08-08T10:34:58.576Z,29.35
2022-08-08T10:38:08.530Z,29.40
2022-08-08T10:41:20.034Z,29.35
2022-08-08T10:44:33.701Z,29.32
2022-08-08T10:47:43.337Z,29.58
2022-08-08T10:50:47.373Z,29.71
2022-08-08T10:53:58.202Z,29.35
2022-08-08T10:57:05.707Z,29.06
2022-08-08T11:00:15.239Z,29.43
2022-08-08T11:03:18.915Z,29.78
2022-08-08T11:06:41.697Z,30.10
2022-08-08T11:09:50.255Z,30.49
2022-08-08T11:13:18.640Z,30.86
2022-08-08T11:16:33.020Z,31.39
2022-08-08T11:19:37.904Z,31.18
2022-08-08T11:22:42.203Z,31.12
2022-08-08T11:25:52.531Z,31.52
2022-08-08T11:29:02.872Z,31.33
2022-08-08T11:32:08.839Z,31.21
2022-08-08T11:35:27.827Z,30.96
2022-08-08T11:38:54.265Z,31.05
2022-08-08T11:41:58.842Z,29.68
2022-08-08T11:45:06.518Z,29.13
2022-08-08T11:48:12.281Z,29.39
2022-08-08T11:51:39.200Z,29.17
2022-08-08T11:54:46.625Z,29.65
2022-08-08T11:57:51.652Z,30.41
2022-08-08T12:00:58.321Z,29.80
2022-08-08T12:04:05.599Z,30.39
2022-08-08T12:07:17.233Z,31.09
2022-08-08T12:10:23.453Z,31.27
2022-08-08T12:13:37.694Z,31.77
2022-08-08T12:16:53.381Z,31.11
2022-08-08T12:19:57.860Z,31.59
2022-08-08T12:23:00.884Z,32.16
2022-08-08T12:26:10.489Z,32.45
2022-08-08T12:29:40.774Z,31.28
2022-08-08T12:32:49.279Z,30.08
2022-08-08T12:35:54.511Z,29.78
2022-08-08T12:38:57.763Z,29.23
2022-08-08T12:42:04.737Z,29.36
2022-08-08T12:45:53.825Z,29.82
2022-08-08T12:48:38.511Z,29.26
2022-08-08T12:51:50.216Z,28.48
2022-08-08T12:55:09.397Z,28.46
2022-08-08T12:58:19.662Z,28.79
2022-08-08T13:01:36.828Z,29.20
2022-08-08T13:04:51.104Z,30.20
2022-08-08T13:08:04.467Z,31.10
2022-08-08T13:11:23.747Z,31.62
2022-08-08T13:14:38.742Z,31.95
2022-08-08T13:18:10.986Z,31.80
2022-08-08T13:21:16.610Z,32.49
2022-08-08T13:24:40.535Z,32.45
2022-08-08T13:27:43.286Z,32.78
2022-08-08T13:30:46.279Z,31.78
2022-08-08T13:33:54.402Z,31.29
2022-08-08T13:36:58.976Z,31.65
2022-08-08T13:40:06.036Z,32.30
2022-08-08T13:43:10.858Z,31.99
2022-08-08T13:46:26.615Z,32.12
2022-08-08T13:50:36.755Z,32.39
2022-08-08T13:52:57.264Z,32.48
2022-08-08T13:56:02.045Z,32.55
2022-08-08T13:59:05.779Z,33.12
2022-08-08T14:02:20.811Z,33.18
2022-08-08T14:05:29.656Z,33.12
2022-08-08T14:08:46.132Z,33.66
2022-08-08T14:11:49.366Z,33.72
2022-08-08T14:14:52.685Z,33.75
2022-08-08T14:17:58.256Z,33.58
2022-08-08T14:21:04.483Z,33.83
2022-08-08T14:24:22.477Z,33.06
2022-08-08T14:27:29.462Z,32.08
2022-08-08T14:30:35.484Z,33.03
2022-08-08T14:33:39.146Z,32.76
2022-08-08T14:36:53.530Z,32.56
2022-08-08T14:40:06.466Z,31.74
2022-08-08T14:43:31.287Z,32.31
2022-08-08T14:46:34.131Z,33.39
2022-08-08T14:50:05.903Z,33.07
2022-08-08T14:53:05.094Z,33.16
2022-08-08T14:56:09.925Z,32.79
2022-08-08T14:59:31.659Z,32.77
2022-08-08T15:02:37.493Z,33.60
2022-08-08T15:06:00.252Z,32.75
2022-08-08T15:09:03.604Z,33.24
2022-08-08T15:12:09.505Z,32.89
2022-08-08T15:15:18.722Z,33.30
2022-08-08T15:18:38.238Z,33.51
2022-08-08T15:21:45.420Z,33.81
2022-08-08T15:24:50.048Z,32.64
2022-08-08T15:28:04.979Z,33.40
2022-08-08T15:31:55.684Z,33.30
2022-08-08T15:34:41.703Z,33.10
2022-08-08T15:37:45.184Z,33.37
2022-08-08T15:40:49.443Z,33.80
2022-08-08T15:44:00.508Z,33.97
2022-08-08T15:47:04.546Z,33.86
2022-08-08T15:50:19.783Z,34.01
2022-08-08T15:53:23.773Z,33.72
2022-08-08T15:56:29.235Z,33.02
2022-08-08T16:00:06.568Z,32.48
2022-08-08T16:02:59.356Z,31.75
2022-08-08T16:06:03.114Z,31.75
2022-08-08T16:13:04.329Z,30.97
2022-08-08T16:13:10.231Z,31.53
2022-08-08T16:15:59.018Z,31.07
2022-08-08T16:19:09.418Z,30.86
2022-08-08T16:22:41.369Z,30.64
2022-08-08T16:25:46.680Z,30.03
2022-08-08T16:28:57.744Z,29.85
2022-08-08T16:32:11.611Z,29.60
2022-08-08T16:35:23.607Z,29.73
2022-08-08T16:38:31.690Z,29.16
2022-08-08T16:41:34.960Z,29.10
2022-08-08T16:44:37.970Z,28.85
2022-08-08T16:47:42.810Z,28.77
2022-08-08T16:50:45.892Z,29.00
2022-08-08T16:55:18.255Z,28.47
2022-08-08T16:57:43.498Z,28.60
2022-08-08T17:00:36.964Z,28.61
2022-08-08T17:04:00.370Z,28.35
2022-08-08T17:07:05.529Z,28.46
2022-08-08T17:10:11.595Z,28.36
2022-08-08T17:13:14.784Z,28.15
2022-08-08T17:16:22.286Z,28.37
2022-08-08T17:19:30.084Z,28.08
2022-08-08T17:22:39.440Z,28.13
2022-08-08T17:25:52.470Z,27.67
2022-08-08T17:28:56.894Z,27.40
2022-08-08T17:32:01.929Z,27.44
2022-08-08T17:35:54.550Z,27.40
2022-08-08T17:38:31.351Z,27.16
2022-08-08T17:41:39.200Z,27.21
2022-08-08T17:44:46.749Z,27.11
2022-08-08T17:47:54.629Z,26.98
2022-08-08T17:51:00.985Z,27.01
2022-08-08T17:54:05.122Z,26.86
2022-08-08T17:57:11.904Z,26.86
2022-08-08T18:01:10.240Z,26.70
2022-08-08T18:04:49.359Z,26.80
2022-08-08T18:08:55.420Z,26.84
2022-08-08T18:12:22.654Z,26.54
2022-08-08T18:16:04.188Z,26.58
2022-08-08T18:20:42.860Z,26.38
2022-08-08T18:23:27.824Z,26.28
2022-08-08T18:26:31.969Z,26.17
2022-08-08T18:29:36.697Z,25.97
2022-08-08T18:32:41.939Z,25.75
2022-08-08T18:35:48.687Z,25.64
2022-08-08T18:38:53.533Z,25.55
2022-08-08T18:41:59.589Z,25.39
2022-08-08T18:45:09.294Z,25.12
2022-08-08T18:48:31.608Z,25.06
2022-08-08T18:51:54.250Z,24.92
2022-08-08T18:55:09.856Z,24.75
2022-08-08T18:58:14.541Z,24.65
2022-08-08T19:02:26.528Z,24.47
2022-08-08T19:04:42.388Z,24.44
2022-08-08T19:07:52.112Z,24.53
2022-08-08T19:10:59.518Z,24.21
2022-08-08T19:14:02.973Z,24.16
2022-08-08T19:17:07.513Z,24.15
2022-08-08T19:20:14.214Z,24.06
2022-08-08T19:23:17.674Z,23.97
2022-08-08T19:26:30.164Z,23.86
2022-08-08T19:29:40.559Z,23.84
2022-08-08T19:32:43.940Z,23.69
2022-08-08T19:36:07.941Z,23.77
2022-08-08T19:39:11.406Z,23.63
2022-08-08T19:42:16.099Z,23.53
2022-08-08T19:45:59.708Z,23.53
2022-08-08T19:48:42.547Z,23.43
2022-08-08T19:51:46.268Z,23.45
2022-08-08T19:54:56.191Z,23.46
2022-08-08T19:58:04.838Z,23.34
2022-08-08T20:01:18.346Z,23.29
2022-08-08T20:04:23.723Z,23.28
2022-08-08T20:08:28.825Z,23.17
2022-08-08T20:10:50.071Z,23.12
2022-08-08T20:14:33.054Z,23.04
2022-08-08T20:17:27.698Z,22.95
2022-08-08T20:20:31.213Z,22.86
2022-08-08T20:23:34.879Z,22.91
2022-08-08T20:26:38.422Z,22.77
2022-08-08T20:30:00.179Z,22.61
2022-08-08T20:33:18.413Z,22.61
2022-08-08T20:36:17.277Z,22.58
2022-08-08T20:39:33.714Z,22.49
2022-08-08T20:42:42.465Z,22.51
2022-08-08T20:45:54.665Z,22.50
2022-08-08T20:49:01.247Z,22.44
2022-08-08T20:52:05.910Z,22.32
2022-08-08T20:55:22.309Z,22.25
2022-08-08T20:58:28.589Z,22.12
2022-08-08T21:02:05.462Z,22.09
2022-08-08T21:05:01.056Z,22.08
2022-08-08T21:08:37.305Z,22.05
2022-08-08T21:11:51.554Z,22.02
2022-08-08T21:14:51.024Z,21.99
2022-08-08T21:17:57.765Z,21.86
2022-08-08T21:21:00.797Z,21.82
2022-08-08T21:24:19.481Z,21.78
2022-08-08T21:28:06.423Z,21.66
2022-08-08T21:30:53.263Z,21.68
2022-08-08T21:33:57.728Z,21.64
2022-08-08T21:37:11.447Z,21.54
2022-08-08T21:40:31.215Z,21.55
2022-08-08T21:43:34.887Z,21.48
2022-08-08T21:48:07.423Z,21.45
2022-08-08T21:50:02.801Z,21.51
2022-08-08T21:54:31.175Z,21.42
2022-08-08T21:56:38.155Z,21.37
2022-08-08T22:00:03.637Z,21.29
2022-08-08T22:03:17.961Z,21.17
2022-08-08T22:06:30.882Z,21.12
2022-08-08T22:09:40.683Z,21.08
2022-08-08T22:12:44.179Z,21.00
2022-08-08T22:15:59.520Z,20.98
2022-08-08T22:19:08.985Z,20.99
2022-08-08T22:22:20.120Z,21.04
2022-08-08T22:25:41.563Z,20.95
2022-08-08T22:29:13.702Z,20.98
2022-08-08T22:32:19.200Z,20.99
2022-08-08T22:35:23.837Z,20.87
2022-08-08T22:38:28.375Z,20.83
2022-08-08T22:41:31.392Z,20.87
2022-08-08T22:44:34.583Z,20.83
2022-08-08T22:47:41.452Z,20.85
2022-08-08T22:50:51.115Z,20.78
2022-08-08T22:54:34.103Z,20.75
2022-08-08T22:57:18.712Z,20.77
2022-08-08T23:00:22.237Z,20.69
2022-08-08T23:03:25.279Z,20.68
2022-08-08T23:06:37.441Z,20.64
2022-08-08T23:09:58.695Z,20.63
2022-08-08T23:13:02.618Z,20.61
2022-08-08T23:16:38.058Z,20.57
2022-08-08T23:19:32.616Z,20.56
2022-08-08T23:22:35.806Z,20.51
2022-08-08T23:25:48.255Z,20.46
2022-08-08T23:28:51.873Z,20.53
2022-08-08T23:31:55.352Z,20.56
2022-08-08T23:34:59.455Z,20.61
2022-08-08T23:38:03.871Z,20.50
2022-08-08T23:41:17.490Z,20.41
2022-08-08T23:44:29.102Z,20.42
2022-08-08T23:49:05.627Z,20.40
2022-08-08T23:50:57.754Z,20.29
2022-08-08T23:54:39.415Z,20.32
2022-08-08T23:57:38.797Z,20.34
